• Join FlightAware (Why Join?)
  • Login
  • US Flag 
12:07PM EST


 

Airport Tracker/Info


-or-


 

Live Flight TrackerFlight Track Log ✈ EJA638P ✈ 09-Oct-2013 ✈ KELD - KPHL

Flight Track Log - Related Links

Times and Time Zones

All times are in EDT time to prevent confusion due to time zone crossing. See the EJA638P flight status page for this flight to view local times or setup timezone preferences in your user account.

Time Position Orientation Groundspeed Altitude Reporting Facility
EDT Latitude Longitude Course Direction KTS MPH feet Rate Location/Type
03:44PM 33.5160 -92.2050 107° East  Level Estimated
03:52PM 33.2747 -92.7772 107° East 403 464 3,300  Level Memphis Center
03:53PM 33.2756 -92.8444 271° West 200 230 5,000 1,500 Climbing Memphis Center
03:54PM 33.2244 -92.7983 143° Southeast 37 43 6,300 2,050 Climbing Memphis Center
03:55PM 33.2550 -92.7172 66° East 143 165 9,100 2,650 Climbing Memphis Center
03:56PM 33.2983 -92.6339 58° Northeast 226 260 11,600 2,150 Climbing Memphis Center
03:57PM 33.3436 -92.5506 57° Northeast 268 308 13,400 1,650 Climbing Memphis Center
03:58PM 33.3911 -92.4572 59° Northeast 302 348 14,900 1,500 Climbing Memphis Center
03:59PM 33.4408 -92.3614 58° Northeast 322 371 16,400 1,450 Climbing Memphis Center
04:00PM 33.4925 -92.2603 58° Northeast 333 383 17,800 1,400 Climbing Memphis Center
04:01PM 33.5442 -92.1592 58° Northeast 343 395 19,200 1,450 Climbing Memphis Center
04:02PM 33.5956 -92.0581 59° Northeast 349 402 20,700 1,500 Climbing Memphis Center
04:03PM 33.6492 -91.9542 58° Northeast 359 413 22,200 1,500 Climbing Memphis Center
04:04PM 33.7028 -91.8478 59° Northeast 359 413 23,700 1,500 Climbing Memphis Center
04:05PM 33.7581 -91.7439 57° Northeast 359 413 25,200 1,550 Climbing Memphis Center
04:06PM 33.8053 -91.6347 62° Northeast 359 413 26,800 1,600 Climbing Memphis Center
04:07PM 33.8606 -91.5278 58° Northeast 364 419 28,400 1,250 Climbing Memphis Center
04:08PM 33.9114 -91.4333 57° Northeast 369 425 29,300 1,000 Climbing Memphis Center
04:09PM 33.9686 -91.3214 58° Northeast 380 437 30,400 1,050 Climbing Memphis Center
04:10PM 34.0239 -91.2067 60° Northeast 385 443 31,400 1,000 Climbing Memphis Center
04:11PM 34.0831 -91.0894 59° Northeast 390 449 32,400 1,000 Climbing Memphis Center
04:12PM 34.1378 -90.9744 60° Northeast 390 449 33,400 1,000 Climbing Memphis Center
04:13PM 34.1989 -90.8569 58° Northeast 405 466 34,400 1,000 Climbing Memphis Center
04:14PM 34.2597 -90.7292 60° Northeast 405 466 35,400 950 Climbing Memphis Center
04:15PM 34.3164 -90.6086 60° Northeast 400 460 36,300 950 Climbing Memphis Center
04:16PM 34.3750 -90.4956 58° Northeast 400 460 37,300 1,000 Climbing Memphis Center
04:17PM 34.4294 -90.3822 60° Northeast 400 460 38,300 1,000 Climbing Memphis Center
04:18PM 34.4858 -90.2689 59° Northeast 400 460 39,300 1,000 Climbing Memphis Center
04:19PM 34.5397 -90.1556 60° Northeast 395 455 40,300 750 Climbing Memphis Center
04:20PM 34.5939 -90.0417 60° Northeast 390 449 40,800 350 Climbing Memphis Center
04:21PM 34.6456 -89.9281 61° Northeast 384 442 41,000 100 Climbing Memphis Center
04:22PM 34.6994 -89.8089 61° Northeast 391 450 41,000  Level Memphis Center
04:23PM 34.7614 -89.6797 60° Northeast 413 475 41,000  Level Memphis Center
04:24PM 34.8231 -89.5500 60° Northeast 427 491 41,000  Level Memphis Center
04:25PM 34.8828 -89.4331 58° Northeast 427 491 41,000  Level Memphis Center
04:26PM 34.9422 -89.3058 60° Northeast 420 483 41,000  Level Memphis Center
04:27PM 35.0017 -89.1833 59° Northeast 420 483 41,000  Level Memphis Center
04:28PM 35.0608 -89.0556 60° Northeast 428 493 41,000  Level Memphis Center
04:29PM 35.1200 -88.9328 59° Northeast 422 486 41,000  Level Memphis Center
04:30PM 35.1792 -88.8075 60° Northeast 422 486 41,000  Level Memphis Center
04:31PM 35.2297 -88.6947 61° Northeast 422 486 41,000  Level Memphis Center
04:32PM 35.2864 -88.5714 61° Northeast 422 486 41,000  Level Memphis Center
04:33PM 35.3453 -88.4506 59° Northeast 422 486 41,000  Level Memphis Center
04:34PM 35.4097 -88.3064 61° Northeast 422 486 41,000  Level Memphis Center
04:35PM 35.4681 -88.1800 60° Northeast 427 491 41,000  Level Memphis Center
04:36PM 35.5264 -88.0611 59° Northeast 415 478 41,000  Level Memphis Center
04:37PM 35.5844 -87.9344 61° Northeast 420 483 41,000  Level Memphis Center
04:38PM 35.6403 -87.8075 62° Northeast 420 483 41,000  Level Memphis Center
04:39PM 35.6919 -87.6936 61° Northeast 429 494 41,000  Level Memphis Center
04:40PM 35.7497 -87.5639 61° Northeast 423 487 41,000  Level Memphis Center
04:41PM 35.8072 -87.4389 60° Northeast 423 487 41,000  Level Memphis Center
04:42PM 35.8625 -87.3039 63° Northeast 423 487 41,000  Level Memphis Center
04:43PM 35.9197 -87.1786 61° Northeast 423 487 41,000  Level Memphis Center
04:44PM 35.9767 -87.0483 62° Northeast 423 487 41,000  Level Memphis Center
04:45PM 36.0317 -86.9178 62° Northeast 423 487 41,000  Level Memphis Center
04:46PM 36.0864 -86.7894 62° Northeast 423 487 41,000  Level Memphis Center
04:47PM 36.1428 -86.6533 63° Northeast 428 493 41,000  Level Memphis Center
04:48PM 36.1931 -86.5200 65° Northeast 428 493 41,000  Level Memphis Center
04:49PM 36.2431 -86.3864 65° Northeast 428 493 41,000  Level Memphis Center
04:50PM 36.2908 -86.2528 66° East 428 493 41,000  Level Memphis Center
04:51PM 36.3667 -86.0461 65° Northeast 431 496 41,000  Level Indianapolis Center
04:52PM 36.4244 -85.8836 66° East 439 505 41,000  Level Indianapolis Center
04:53PM 36.4736 -85.7447 66° East 438 504 41,000  Level Indianapolis Center
04:54PM 36.5219 -85.6069 66° East 434 499 41,000  Level Indianapolis Center
04:56PM 36.5703 -85.4675 67° East 436 502 41,000  Level Indianapolis Center
04:57PM 36.6192 -85.3278 66° East 439 505 41,000  Level Indianapolis Center
04:58PM 36.6664 -85.1889 67° East 436 502 41,000  Level Indianapolis Center
04:59PM 36.7242 -85.0219 67° East 436 502 41,000  Level Indianapolis Center
05:00PM 36.7722 -84.8822 67° East 438 504 41,000  Level Indianapolis Center
05:01PM 36.8192 -84.7453 67° East 431 496 41,000  Level Indianapolis Center
05:02PM 36.8667 -84.6058 67° East 434 499 41,000  Level Indianapolis Center
05:03PM 36.9136 -84.4664 67° East 433 498 41,000  Level Indianapolis Center
05:04PM 36.9600 -84.3275 67° East 432 497 41,000  Level Indianapolis Center
05:05PM 37.0153 -84.1667 67° East 431 496 41,000  Level Indianapolis Center
05:06PM 37.0569 -84.0239 70° East 435 501 41,000  Level Indianapolis Center
05:07PM 37.0961 -83.8803 71° East 438 504 41,000  Level Indianapolis Center
05:08PM 37.1328 -83.7358 72° East 439 505 41,000  Level Indianapolis Center
05:09PM 37.1706 -83.5925 72° East 436 502 41,000  Level Indianapolis Center
05:10PM 37.2083 -83.4486 72° East 436 502 41,000  Level Indianapolis Center
05:11PM 37.2514 -83.2794 72° East 434 499 41,000  Level Indianapolis Center
05:12PM 37.2892 -83.1361 72° East 432 497 41,000  Level Indianapolis Center
05:13PM 37.3253 -82.9917 73° East 432 497 41,000  Level Indianapolis Center
05:14PM 37.3622 -82.8461 72° East 434 499 41,000  Level Indianapolis Center
05:15PM 37.3986 -82.7006 72° East 435 501 41,000  Level Indianapolis Center
05:16PM 37.4353 -82.5550 72° East 435 501 41,000  Level Indianapolis Center
05:17PM 37.4714 -82.4094 73° East 435 501 41,000  Level Indianapolis Center
05:18PM 37.5144 -82.2389 72° East 437 503 41,000  Level Indianapolis Center
05:19PM 37.5500 -82.0922 73° East 437 503 41,000  Level Indianapolis Center
05:20PM 37.5853 -81.9458 73° East 436 502 41,000  Level Indianapolis Center
05:21PM 37.6211 -81.7981 73° East 439 505 41,000  Level Indianapolis Center
05:22PM 37.6567 -81.6500 73° East 440 506 41,000  Level Indianapolis Center
05:23PM 37.6956 -81.4883 73° East 436 502 41,000  Level Indianapolis Center
05:24PM 37.7322 -81.3292 74° East 435 501 41,000  Level Indianapolis Center
05:26PM 37.7658 -81.1867 73° East 434 499 41,000  Level Indianapolis Center
05:27PM 37.7856 -81.0411 80° East 432 497 41,000  Level Indianapolis Center
05:28PM 37.7956 -80.8928 85° East 434 499 41,000  Level Indianapolis Center
05:29PM 37.8097 -80.7153 84° East 434 499 41,000 -109 Level Indianapolis Center
05:29PM 37.8142 -80.5994 87° East 422 486 40,800 -889 Descending Washington Center
05:30PM 37.8247 -80.4478 85° East 422 486 39,400 -1,884 Descending Washington Center
05:31PM 37.8322 -80.3142 86° East 423 487 37,000 -2,231 Descending Washington Center
05:32PM 37.8419 -80.1675 85° East 423 487 34,900 -1,934 Descending Washington Center
05:33PM 37.8514 -80.0261 85° East 418 481 33,100 -950 Descending Washington Center
05:34PM 37.8608 -79.8844 85° East 407 468 33,000 -51 Descending Washington Center
05:35PM 37.8700 -79.7403 85° East 401 461 33,000  Level Washington Center
05:36PM 37.8794 -79.5831 86° East 401 461 33,000  Level Washington Center
05:37PM 37.8861 -79.4439 86° East 401 461 33,000  Level Washington Center
05:38PM 37.8950 -79.2994 85° East 401 461 33,000  Level Washington Center
05:39PM 37.9011 -79.1603 87° East 401 461 33,000  Level Washington Center
05:40PM 37.9139 -79.0161 84° East 401 461 33,000  Level Washington Center
05:41PM 37.9322 -78.8750 81° East 401 461 33,000  Level Washington Center
05:42PM 37.9483 -78.7464 81° East 407 468 33,000  Level Washington Center
05:43PM 37.9664 -78.6050 81° East 407 468 33,000  Level Washington Center
05:44PM 37.9825 -78.4608 82° East 407 468 33,000  Level Washington Center
05:45PM 37.9983 -78.3217 82° East 407 468 33,000  Level Washington Center
05:46PM 38.0142 -78.1694 82° East 418 481 33,000 -706 Level Washington Center
05:47PM 38.0667 -78.0500 61° Northeast 401 461 31,600 -1,438 Descending Washington Center
05:48PM 38.1297 -77.9225 58° Northeast 401 461 30,100 -1,289 Descending Washington Center
05:49PM 38.1906 -77.7950 59° Northeast 406 467 29,000 -545 Descending Washington Center
05:50PM 38.2533 -77.6700 57° Northeast 418 481 29,000  Level Washington Center
05:51PM 38.3136 -77.5472 58° Northeast 418 481 29,000  Level Washington Center
05:52PM 38.3742 -77.4244 58° Northeast 418 481 29,000 -49 Level Washington Center
05:53PM 38.4342 -77.3014 58° Northeast 418 481 28,900 -555 Descending Washington Center
05:54PM 38.4942 -77.1781 58° Northeast 413 475 27,900 -1,059 Descending Washington Center
05:55PM 38.5564 -77.0544 57° Northeast 408 470 26,800 -1,082 Descending Washington Center
05:56PM 38.6183 -76.9256 58° Northeast 414 476 25,700 -1,140 Descending Washington Center
05:57PM 38.6800 -76.7992 58° Northeast 414 476 24,500 -850 Descending Washington Center
05:58PM 38.7231 -76.6614 68° East 414 476 24,000 -1,000 Descending Washington Center
05:59PM 38.7514 -76.5261 75° East 402 463 22,500 -1,831 Descending Washington Center
06:00PM 38.7794 -76.3906 75° East 395 455 20,400 -2,033 Descending Washington Center
06:01PM 38.8094 -76.2417 75° East 390 449 18,400 -2,450 Descending Washington Center
06:02PM 38.8372 -76.1192 74° East 376 433 15,500 -1,729 Descending Washington Center
06:03PM 38.8625 -76.0022 74° East 352 405 15,000 -246 Descending Washington Center
06:04PM 38.8858 -75.8797 76° East 345 397 15,000  Level Washington Center
06:05PM 38.9506 -75.7864 48° Northeast 337 388 15,000 -303 Level Washington Center
06:06PM 39.0300 -75.7092 37° Northeast 337 388 14,400 -1,500 Descending Washington Center
06:09PM 39.2167 -75.6667 10° North 277 319 10,200 -1,351 Descending Philadelphia TRACON
06:10PM 39.3000 -75.6500 North 276 318 10,100 -350 Descending Philadelphia TRACON
06:11PM 39.3667 -75.5833 38° Northeast 278 320 9,500 -992 Descending Philadelphia TRACON
06:12PM 39.4167 -75.5333 38° Northeast 287 330 8,100 -1,835 Descending Philadelphia TRACON
06:13PM 39.4667 -75.4500 52° Northeast 268 308 5,800 -1,550 Descending Philadelphia TRACON
06:14PM 39.4833 -75.3667 75° East 256 295 5,000 -1,300 Descending Philadelphia TRACON
06:15PM 39.5333 -75.3000 46° Northeast 244 281 3,200 -1,000 Descending Philadelphia TRACON
06:16PM 39.5667 -75.2500 49° Northeast 224 258 3,000 -100 Descending Philadelphia TRACON
06:17PM 39.6167 -75.2000 38° Northeast 183 211 3,000 -450 Level Philadelphia TRACON
06:18PM 39.6500 -75.1667 38° Northeast 145 167 2,100 -450 Descending Philadelphia TRACON
06:19PM 39.6833 -75.1667 360° North 174 200 2,100  Level Philadelphia TRACON
06:20PM 39.7333 -75.1833 346° North 140 161 2,100  Level Philadelphia TRACON
06:21PM 39.7667 -75.1833 360° North 130 150 2,100 -263 Level Philadelphia TRACON
06:22PM 39.8000 -75.2000 339° North 137 158 1,600 -684 Descending Philadelphia TRACON
06:23PM 39.8333 -75.2167 339° North 131 151 800 -800 Descending Philadelphia TRACON